createdAt,value
2017-08-07T00:02:09.982Z,13.38
2017-08-07T00:04:36.982Z,13.33
2017-08-07T00:07:03.660Z,13.33
2017-08-07T00:09:30.158Z,13.31
2017-08-07T00:11:56.621Z,13.28
2017-08-07T00:14:23.038Z,13.24
2017-08-07T00:16:49.499Z,13.20
2017-08-07T00:19:16.665Z,13.19
2017-08-07T00:21:44.428Z,13.17
2017-08-07T00:24:10.841Z,13.13
2017-08-07T00:26:37.394Z,13.11
2017-08-07T00:29:03.858Z,13.09
2017-08-07T00:31:30.357Z,13.10
2017-08-07T00:33:56.768Z,13.07
2017-08-07T00:36:23.191Z,13.04
2017-08-07T00:38:49.645Z,13.00
2017-08-07T00:41:16.097Z,12.99
2017-08-07T00:43:43.477Z,12.95
2017-08-07T00:46:09.937Z,12.95
2017-08-07T00:48:36.327Z,12.94
2017-08-07T00:51:02.863Z,12.93
2017-08-07T00:53:29.309Z,12.93
2017-08-07T00:55:55.782Z,12.91
2017-08-07T00:58:22.278Z,12.88
2017-08-07T01:00:48.693Z,12.85
2017-08-07T01:03:15.176Z,12.85
2017-08-07T01:05:41.580Z,12.80
2017-08-07T01:08:08.019Z,12.79
2017-08-07T01:10:34.449Z,12.76
2017-08-07T01:13:03.996Z,12.76
2017-08-07T01:15:30.475Z,12.77
2017-08-07T01:17:56.921Z,12.76
2017-08-07T01:20:23.344Z,12.76
2017-08-07T01:22:49.766Z,12.70
2017-08-07T01:25:16.213Z,12.69
2017-08-07T01:27:42.651Z,12.69
2017-08-07T01:30:09.140Z,12.69
2017-08-07T01:32:35.569Z,12.69
2017-08-07T01:35:01.943Z,12.64
2017-08-07T01:37:28.433Z,12.63
2017-08-07T01:39:54.878Z,12.62
2017-08-07T01:42:21.320Z,12.62
2017-08-07T01:44:47.778Z,12.62
2017-08-07T01:47:14.217Z,12.59
2017-08-07T01:49:40.631Z,12.54
2017-08-07T01:52:08.049Z,12.55
2017-08-07T01:54:34.467Z,12.54
2017-08-07T01:57:00.941Z,12.50
2017-08-07T01:59:27.403Z,12.47
2017-08-07T02:01:53.829Z,12.45
2017-08-07T02:04:20.246Z,12.45
2017-08-07T02:06:46.710Z,12.43
2017-08-07T02:09:13.090Z,12.39
2017-08-07T02:11:39.513Z,12.38
2017-08-07T02:14:05.962Z,12.36
2017-08-07T02:16:32.396Z,12.33
2017-08-07T02:18:58.922Z,12.34
2017-08-07T02:21:25.376Z,12.32
2017-08-07T02:23:51.812Z,12.26
2017-08-07T02:26:18.203Z,12.26
2017-08-07T02:28:44.603Z,12.28
2017-08-07T02:31:11.024Z,12.26
2017-08-07T02:33:37.419Z,12.23
2017-08-07T02:36:03.874Z,12.19
2017-08-07T02:38:30.271Z,12.20
2017-08-07T02:40:56.732Z,12.16
2017-08-07T02:43:23.215Z,12.14
2017-08-07T02:45:49.644Z,12.12
2017-08-07T02:48:16.098Z,12.08
2017-08-07T02:50:42.577Z,12.11
2017-08-07T02:53:09.063Z,12.09
2017-08-07T02:55:35.472Z,12.07
2017-08-07T02:58:01.863Z,12.06
2017-08-07T03:00:28.339Z,12.07
2017-08-07T03:02:54.728Z,12.01
2017-08-07T03:05:21.193Z,11.98
2017-08-07T03:07:47.609Z,11.99
2017-08-07T03:10:14.057Z,11.95
2017-08-07T03:12:40.519Z,11.98
2017-08-07T03:15:06.964Z,11.97
2017-08-07T03:17:33.378Z,11.95
2017-08-07T03:19:59.844Z,11.92
2017-08-07T03:22:26.321Z,11.91
2017-08-07T03:24:52.709Z,11.89
2017-08-07T03:27:19.202Z,11.87
2017-08-07T03:29:45.664Z,11.88
2017-08-07T03:32:12.072Z,11.86
2017-08-07T03:34:38.536Z,11.84
2017-08-07T03:37:04.915Z,11.84
2017-08-07T03:39:31.342Z,11.86
2017-08-07T03:41:57.773Z,11.81
2017-08-07T03:44:24.174Z,11.85
2017-08-07T03:46:50.606Z,11.83
2017-08-07T03:49:17.033Z,11.81
2017-08-07T03:51:43.489Z,11.83
2017-08-07T03:54:09.916Z,11.82
2017-08-07T03:56:36.306Z,11.76
2017-08-07T03:59:02.727Z,11.85
2017-08-07T04:01:29.575Z,11.88
2017-08-07T04:03:55.993Z,11.83
2017-08-07T04:06:22.425Z,11.82
2017-08-07T04:08:48.807Z,11.84
2017-08-07T04:11:15.327Z,11.84
2017-08-07T04:13:41.760Z,11.86
2017-08-07T04:16:08.189Z,11.87
2017-08-07T04:18:34.620Z,11.79
2017-08-07T04:21:01.437Z,11.82
2017-08-07T04:23:27.928Z,11.81
2017-08-07T04:25:54.513Z,11.80
2017-08-07T04:28:23.573Z,11.80
2017-08-07T04:30:52.168Z,11.81
2017-08-07T04:33:19.539Z,11.82
2017-08-07T04:35:46.014Z,11.85
2017-08-07T04:38:12.487Z,11.89
2017-08-07T04:40:39.021Z,11.91
2017-08-07T04:43:05.473Z,11.92
2017-08-07T04:45:31.888Z,11.95
2017-08-07T04:47:58.277Z,11.92
2017-08-07T04:50:24.749Z,11.99
2017-08-07T04:52:51.227Z,12.03
2017-08-07T04:55:17.916Z,12.01
2017-08-07T04:57:44.351Z,12.07
2017-08-07T05:00:10.802Z,12.12
2017-08-07T05:02:37.317Z,12.16
2017-08-07T05:05:03.685Z,12.23
2017-08-07T05:07:30.585Z,12.26
2017-08-07T05:09:57.000Z,12.28
2017-08-07T05:12:23.458Z,12.33
2017-08-07T05:14:49.857Z,12.36
2017-08-07T05:17:16.293Z,12.36
2017-08-07T05:19:42.778Z,12.45
2017-08-07T05:22:09.220Z,12.52
2017-08-07T05:24:35.705Z,12.54
2017-08-07T05:27:02.177Z,12.54
2017-08-07T05:29:28.599Z,12.62
2017-08-07T05:31:55.069Z,12.65
2017-08-07T05:34:21.512Z,12.70
2017-08-07T05:36:48.239Z,12.76
2017-08-07T05:39:14.713Z,12.80
2017-08-07T05:41:41.188Z,12.87
2017-08-07T05:44:07.589Z,12.95
2017-08-07T05:46:34.085Z,12.99
2017-08-07T05:49:00.492Z,13.04
2017-08-07T05:51:26.949Z,13.12
2017-08-07T05:53:53.358Z,13.14
2017-08-07T05:56:19.799Z,13.20
2017-08-07T05:58:46.235Z,13.32
2017-08-07T06:01:12.978Z,13.38
2017-08-07T06:03:39.432Z,13.43
2017-08-07T06:06:05.988Z,13.47
2017-08-07T06:08:32.388Z,13.56
2017-08-07T06:10:58.877Z,13.62
2017-08-07T06:13:25.349Z,13.68
2017-08-07T06:15:51.890Z,13.74
2017-08-07T06:18:18.351Z,13.81
2017-08-07T06:20:44.824Z,13.86
2017-08-07T06:23:11.283Z,13.93
2017-08-07T06:25:37.728Z,13.99
2017-08-07T06:28:04.264Z,14.05
2017-08-07T06:30:30.700Z,14.10
2017-08-07T06:33:01.044Z,14.17
2017-08-07T06:35:27.590Z,14.23
2017-08-07T06:37:54.121Z,14.27
2017-08-07T06:40:25.740Z,14.34
2017-08-07T06:42:52.200Z,14.38
2017-08-07T06:45:18.640Z,14.44
2017-08-07T06:47:45.197Z,14.50
2017-08-07T06:50:11.648Z,14.57
2017-08-07T06:52:38.166Z,14.64
2017-08-07T06:55:04.591Z,14.69
2017-08-07T06:57:31.042Z,14.75
2017-08-07T06:59:57.554Z,14.82
2017-08-07T07:02:23.965Z,14.88
2017-08-07T07:04:50.520Z,14.95
2017-08-07T07:07:16.981Z,15.01
2017-08-07T07:09:43.721Z,15.06
2017-08-07T07:12:10.172Z,15.11
2017-08-07T07:14:36.584Z,15.17
2017-08-07T07:17:03.062Z,15.23
2017-08-07T07:19:29.464Z,15.30
2017-08-07T07:21:55.929Z,15.35
2017-08-07T07:24:22.366Z,15.43
2017-08-07T07:26:48.896Z,15.49
2017-08-07T07:29:15.381Z,15.56
2017-08-07T07:31:41.910Z,15.63
2017-08-07T07:34:08.335Z,15.71
2017-08-07T07:36:35.140Z,15.81
2017-08-07T07:39:01.613Z,15.88
2017-08-07T07:41:28.086Z,15.96
2017-08-07T07:43:54.680Z,16.04
2017-08-07T07:46:21.098Z,16.12
2017-08-07T07:48:47.607Z,16.19
2017-08-07T07:51:14.081Z,16.28
2017-08-07T07:53:40.569Z,16.35
2017-08-07T07:56:07.967Z,16.44
2017-08-07T07:58:34.601Z,16.55
2017-08-07T08:01:01.030Z,16.63
2017-08-07T08:03:27.546Z,16.72
2017-08-07T08:05:54.083Z,16.81
2017-08-07T08:08:20.477Z,16.89
2017-08-07T08:10:46.974Z,17.01
2017-08-07T08:13:13.439Z,17.10
2017-08-07T08:15:39.868Z,17.20
2017-08-07T08:18:06.356Z,17.31
2017-08-07T08:20:32.865Z,17.40
2017-08-07T08:23:00.932Z,17.50
2017-08-07T08:25:27.428Z,17.62
2017-08-07T08:27:53.903Z,17.70
2017-08-07T08:30:20.377Z,17.79
2017-08-07T08:32:46.777Z,17.87
2017-08-07T08:35:13.303Z,17.99
2017-08-07T08:37:40.654Z,18.07
2017-08-07T08:40:07.133Z,18.16
2017-08-07T08:42:33.559Z,18.28
2017-08-07T08:45:00.028Z,18.35
2017-08-07T08:47:26.603Z,18.47
2017-08-07T08:49:53.313Z,18.58
2017-08-07T08:52:19.818Z,18.70
2017-08-07T08:54:46.952Z,18.80
2017-08-07T08:57:13.379Z,18.90
2017-08-07T08:59:39.897Z,18.97
2017-08-07T09:02:06.471Z,19.06
2017-08-07T09:04:32.910Z,19.14
2017-08-07T09:06:59.347Z,19.23
2017-08-07T09:09:26.550Z,19.26
2017-08-07T09:11:53.009Z,19.41
2017-08-07T09:14:19.520Z,19.52
2017-08-07T09:16:46.117Z,19.58
2017-08-07T09:19:12.660Z,19.69
2017-08-07T09:21:39.177Z,19.80
2017-08-07T09:24:05.695Z,19.91
2017-08-07T09:26:32.502Z,20.00
2017-08-07T09:28:59.912Z,20.11
2017-08-07T09:31:27.251Z,20.20
2017-08-07T09:33:53.698Z,20.25
2017-08-07T09:36:20.225Z,20.40
2017-08-07T09:38:46.644Z,20.48
2017-08-07T09:41:13.187Z,20.55
2017-08-07T09:43:39.643Z,20.64
2017-08-07T09:46:06.114Z,20.72
2017-08-07T09:48:32.648Z,20.82
2017-08-07T09:50:59.145Z,20.92
2017-08-07T09:53:25.659Z,20.97
2017-08-07T09:55:52.055Z,21.04
2017-08-07T09:58:18.528Z,21.13
2017-08-07T10:00:44.936Z,21.15
2017-08-07T10:03:11.424Z,21.13
2017-08-07T10:05:37.936Z,21.21
2017-08-07T10:08:04.570Z,21.22
2017-08-07T10:10:32.730Z,21.28
2017-08-07T10:13:03.151Z,21.40
2017-08-07T10:15:30.495Z,21.42
2017-08-07T10:17:57.062Z,21.44
2017-08-07T10:20:23.601Z,21.52
2017-08-07T10:22:49.987Z,21.60
2017-08-07T10:25:16.525Z,21.63
2017-08-07T10:27:44.806Z,21.61
2017-08-07T10:30:12.184Z,21.66
2017-08-07T10:32:38.656Z,21.70
2017-08-07T10:35:05.948Z,21.78
2017-08-07T10:37:32.457Z,21.79
2017-08-07T10:39:58.897Z,21.84
2017-08-07T10:42:26.065Z,21.89
2017-08-07T10:44:52.467Z,21.85
2017-08-07T10:47:18.936Z,21.96
2017-08-07T10:49:45.414Z,22.02
2017-08-07T10:52:11.927Z,22.05
2017-08-07T10:54:38.500Z,22.14
2017-08-07T10:57:05.014Z,22.12
2017-08-07T10:59:32.151Z,22.15
2017-08-07T11:01:58.988Z,22.20
2017-08-07T11:04:26.272Z,22.21
2017-08-07T11:06:52.684Z,22.20
2017-08-07T11:09:19.146Z,22.22
2017-08-07T11:11:46.474Z,22.15
2017-08-07T11:14:13.319Z,22.15
2017-08-07T11:16:39.766Z,22.24
2017-08-07T11:19:06.768Z,22.29
2017-08-07T11:21:33.321Z,22.29
2017-08-07T11:24:00.598Z,22.29
2017-08-07T11:26:27.104Z,22.32
2017-08-07T11:28:53.678Z,22.40
2017-08-07T11:31:20.237Z,22.44
2017-08-07T11:33:46.699Z,22.49
2017-08-07T11:36:13.238Z,22.48
2017-08-07T11:38:39.750Z,22.49
2017-08-07T11:41:06.774Z,22.54
2017-08-07T11:43:33.782Z,22.59
2017-08-07T11:46:01.145Z,22.69
2017-08-07T11:48:28.385Z,22.69
2017-08-07T11:50:55.717Z,22.69
2017-08-07T11:53:22.248Z,22.78
2017-08-07T11:55:48.746Z,22.78
2017-08-07T11:58:15.223Z,22.86
2017-08-07T12:00:41.778Z,22.96
2017-08-07T12:03:08.474Z,22.94
2017-08-07T12:05:34.966Z,22.94
2017-08-07T12:08:01.426Z,23.04
2017-08-07T12:10:27.919Z,23.07
2017-08-07T12:12:54.390Z,23.13
2017-08-07T12:15:21.755Z,23.18
2017-08-07T12:17:48.288Z,23.18
2017-08-07T12:20:14.733Z,23.21
2017-08-07T12:22:41.204Z,23.25
2017-08-07T12:25:07.689Z,23.28
2017-08-07T12:27:34.175Z,23.24
2017-08-07T12:30:00.644Z,23.29
2017-08-07T12:32:27.148Z,23.22
2017-08-07T12:34:53.591Z,23.23
2017-08-07T12:37:20.154Z,23.27
2017-08-07T12:39:46.603Z,23.28
2017-08-07T12:42:13.111Z,23.34
2017-08-07T12:44:39.752Z,23.39
2017-08-07T12:47:06.126Z,23.43
2017-08-07T12:49:32.524Z,23.47
2017-08-07T12:51:59.049Z,23.51
2017-08-07T12:54:26.141Z,23.56
2017-08-07T12:56:53.052Z,23.61
2017-08-07T12:59:19.473Z,23.69
2017-08-07T13:01:46.464Z,23.78
2017-08-07T13:04:12.953Z,23.82
2017-08-07T13:06:39.437Z,23.85
2017-08-07T13:09:05.887Z,23.91
2017-08-07T13:11:32.347Z,23.99
2017-08-07T13:13:58.814Z,24.03
2017-08-07T13:16:25.258Z,24.03
2017-08-07T13:18:51.793Z,24.04
2017-08-07T13:21:19.057Z,23.99
2017-08-07T13:23:45.528Z,23.98
2017-08-07T13:26:12.857Z,24.08
2017-08-07T13:28:39.357Z,24.12
2017-08-07T13:31:06.075Z,24.11
2017-08-07T13:33:32.483Z,24.14
2017-08-07T13:35:58.925Z,24.16
2017-08-07T13:38:25.423Z,24.24
2017-08-07T13:40:52.827Z,24.26
2017-08-07T13:43:19.251Z,24.24
2017-08-07T13:45:45.765Z,24.25
2017-08-07T13:48:13.140Z,24.26
2017-08-07T13:50:39.653Z,24.37
2017-08-07T13:53:06.091Z,24.41
2017-08-07T13:55:32.605Z,24.42
2017-08-07T13:57:59.087Z,24.33
2017-08-07T14:00:26.286Z,24.37
2017-08-07T14:02:52.797Z,24.36
2017-08-07T14:05:19.298Z,24.41
2017-08-07T14:07:45.698Z,24.44
2017-08-07T14:10:12.150Z,24.46
2017-08-07T14:12:38.579Z,24.51
2017-08-07T14:15:05.291Z,24.49
2017-08-07T14:17:31.789Z,24.53
2017-08-07T14:19:58.267Z,24.49
2017-08-07T14:22:24.690Z,24.48
2017-08-07T14:24:51.203Z,24.55
2017-08-07T14:27:17.713Z,24.53
2017-08-07T14:29:44.267Z,24.58
2017-08-07T14:32:10.762Z,24.58
2017-08-07T14:34:37.173Z,24.56
2017-08-07T14:37:03.626Z,24.51
2017-08-07T14:39:30.074Z,24.43
2017-08-07T14:41:56.561Z,24.36
2017-08-07T14:44:23.251Z,24.37
2017-08-07T14:46:49.744Z,24.34
2017-08-07T14:49:16.851Z,24.37
2017-08-07T14:51:43.260Z,24.38
2017-08-07T14:54:09.974Z,24.41
2017-08-07T14:56:36.433Z,24.43
2017-08-07T14:59:03.446Z,24.46
2017-08-07T15:01:29.867Z,24.57
2017-08-07T15:03:56.386Z,24.63
2017-08-07T15:06:23.306Z,24.61
2017-08-07T15:08:49.737Z,24.64
2017-08-07T15:11:16.286Z,24.65
2017-08-07T15:13:42.782Z,24.62
2017-08-07T15:16:09.182Z,24.66
2017-08-07T15:18:36.560Z,24.70
2017-08-07T15:21:03.037Z,24.68
2017-08-07T15:23:29.516Z,24.68
2017-08-07T15:25:55.971Z,24.61
2017-08-07T15:28:22.464Z,24.59
2017-08-07T15:30:48.974Z,24.53
2017-08-07T15:33:15.492Z,24.50
2017-08-07T15:35:41.904Z,24.51
2017-08-07T15:38:09.208Z,24.47
2017-08-07T15:40:35.731Z,24.48
2017-08-07T15:43:02.232Z,24.51
2017-08-07T15:45:28.715Z,24.50
2017-08-07T15:47:55.146Z,24.48
2017-08-07T15:50:22.753Z,24.52
2017-08-07T15:52:49.266Z,24.54
2017-08-07T15:55:15.767Z,24.52
2017-08-07T15:57:42.269Z,24.55
2017-08-07T16:00:08.769Z,24.56
2017-08-07T16:02:35.168Z,24.52
2017-08-07T16:05:01.616Z,24.48
2017-08-07T16:07:28.046Z,24.48
2017-08-07T16:09:54.788Z,24.47
2017-08-07T16:12:21.267Z,24.42
2017-08-07T16:14:47.709Z,24.37
2017-08-07T16:17:14.236Z,24.27
2017-08-07T16:19:40.763Z,24.28
2017-08-07T16:22:07.833Z,24.18
2017-08-07T16:24:34.611Z,24.14
2017-08-07T16:27:01.046Z,24.10
2017-08-07T16:29:27.671Z,24.07
2017-08-07T16:31:54.164Z,24.02
2017-08-07T16:34:21.133Z,23.93
2017-08-07T16:36:47.621Z,23.90
2017-08-07T16:39:14.049Z,23.85
2017-08-07T16:41:40.520Z,23.85
2017-08-07T16:44:06.964Z,23.82
2017-08-07T16:46:33.374Z,23.73
2017-08-07T16:48:59.887Z,23.72
2017-08-07T16:51:26.306Z,23.67
2017-08-07T16:53:52.993Z,23.63
2017-08-07T16:56:20.796Z,23.55
2017-08-07T16:58:47.959Z,23.53
2017-08-07T17:01:17.826Z,23.48
2017-08-07T17:03:51.375Z,23.44
2017-08-07T17:09:14.675Z,23.28
2017-08-07T17:11:44.850Z,23.22
2017-08-07T17:14:13.590Z,23.15
2017-08-07T17:16:42.610Z,23.10
2017-08-07T17:19:09.490Z,23.03
2017-08-07T17:21:42.989Z,22.98
2017-08-07T17:24:10.560Z,22.92
2017-08-07T17:26:37.223Z,22.86
2017-08-07T17:29:04.086Z,22.81
2017-08-07T17:31:30.646Z,22.73
2017-08-07T17:33:57.129Z,22.68
2017-08-07T17:36:24.679Z,22.61
2017-08-07T17:38:55.386Z,22.54
2017-08-07T17:41:31.696Z,22.47
2017-08-07T17:44:03.714Z,22.41
2017-08-07T17:46:38.018Z,22.32
2017-08-07T17:49:08.550Z,22.27
2017-08-07T17:51:44.436Z,22.20
2017-08-07T17:54:17.130Z,22.15
2017-08-07T17:56:52.020Z,22.11
2017-08-07T17:59:26.840Z,22.03
2017-08-07T18:02:06.609Z,21.98
2017-08-07T18:04:47.440Z,21.92
2017-08-07T18:07:27.833Z,21.83
2017-08-07T18:10:07.690Z,21.78
2017-08-07T18:12:45.351Z,21.71
2017-08-07T18:15:23.915Z,21.63
2017-08-07T18:20:38.013Z,21.51
2017-08-07T18:23:17.005Z,21.46
2017-08-07T18:25:56.107Z,21.39
2017-08-07T18:28:26.076Z,21.33
2017-08-07T18:30:56.494Z,21.26
2017-08-07T18:33:31.583Z,21.20
2017-08-07T18:35:58.742Z,21.13
2017-08-07T18:41:19.678Z,20.99
2017-08-07T18:43:51.017Z,20.91
2017-08-07T18:46:27.750Z,20.84
2017-08-07T18:49:05.669Z,20.75
2017-08-07T18:51:37.646Z,20.67
2017-08-07T18:54:10.565Z,20.62
2017-08-07T18:56:40.474Z,20.55
2017-08-07T19:01:58.137Z,20.43
2017-08-07T19:04:24.660Z,20.37
2017-08-07T19:06:57.591Z,20.29
2017-08-07T19:09:29.289Z,20.23
2017-08-07T19:12:00.988Z,20.16
2017-08-07T19:14:29.108Z,20.10
2017-08-07T19:16:55.647Z,20.01
2017-08-07T19:19:25.146Z,19.95
2017-08-07T19:21:51.542Z,19.87
2017-08-07T19:24:38.542Z,19.81
2017-08-07T19:27:23.590Z,19.73
2017-08-07T19:30:11.103Z,19.65
2017-08-07T19:32:49.077Z,19.58
2017-08-07T19:38:16.105Z,19.44
2017-08-07T19:41:04.122Z,19.37
2017-08-07T19:43:47.958Z,19.29
2017-08-07T19:46:31.379Z,19.23
2017-08-07T19:49:10.527Z,19.15
2017-08-07T19:51:39.812Z,19.09
2017-08-07T19:54:18.135Z,19.04
2017-08-07T19:56:45.488Z,18.99
2017-08-07T19:59:13.763Z,18.94
2017-08-07T20:01:40.215Z,18.89
2017-08-07T20:04:06.819Z,18.84
2017-08-07T20:06:33.305Z,18.78
2017-08-07T20:08:59.928Z,18.74
2017-08-07T20:11:26.416Z,18.68
2017-08-07T20:13:53.812Z,18.64
2017-08-07T20:16:20.350Z,18.59
2017-08-07T20:18:46.803Z,18.55
2017-08-07T20:21:13.509Z,18.50
2017-08-07T20:23:39.971Z,18.44
2017-08-07T20:26:06.453Z,18.41
2017-08-07T20:28:32.930Z,18.38
2017-08-07T20:30:59.420Z,18.34
2017-08-07T20:33:25.939Z,18.30
2017-08-07T20:35:52.386Z,18.26
2017-08-07T20:38:18.923Z,18.22
2017-08-07T20:40:45.462Z,18.18
2017-08-07T20:43:11.949Z,18.13
2017-08-07T20:45:38.418Z,18.10
2017-08-07T20:48:05.668Z,18.06
2017-08-07T20:50:33.173Z,18.01
2017-08-07T20:53:05.607Z,17.97
2017-08-07T20:55:32.002Z,17.93
2017-08-07T20:57:59.514Z,17.91
2017-08-07T21:00:25.994Z,17.88
2017-08-07T21:02:52.502Z,17.84
2017-08-07T21:05:19.073Z,17.81
2017-08-07T21:07:45.517Z,17.76
2017-08-07T21:10:12.212Z,17.71
2017-08-07T21:12:38.867Z,17.67
2017-08-07T21:15:05.429Z,17.62
2017-08-07T21:17:31.917Z,17.58
2017-08-07T21:19:59.283Z,17.54
2017-08-07T21:22:25.787Z,17.51
2017-08-07T21:24:52.231Z,17.49
2017-08-07T21:27:18.675Z,17.43
2017-08-07T21:29:45.226Z,17.38
2017-08-07T21:32:11.724Z,17.35
2017-08-07T21:34:38.479Z,17.32
2017-08-07T21:37:05.780Z,17.28
2017-08-07T21:39:32.341Z,17.25
2017-08-07T21:41:59.144Z,17.22
2017-08-07T21:44:25.627Z,17.18
2017-08-07T21:46:53.019Z,17.15
2017-08-07T21:49:19.472Z,17.11
2017-08-07T21:51:45.973Z,17.09
2017-08-07T21:54:12.414Z,17.06
2017-08-07T21:56:39.711Z,17.02
2017-08-07T21:59:06.982Z,17.00
2017-08-07T22:01:34.232Z,16.97
2017-08-07T22:04:00.826Z,16.94
2017-08-07T22:06:28.419Z,16.93
2017-08-07T22:08:55.833Z,16.89
2017-08-07T22:11:22.956Z,16.86
2017-08-07T22:13:50.673Z,16.86
2017-08-07T22:16:18.641Z,16.81
2017-08-07T22:18:45.075Z,16.81
2017-08-07T22:21:11.606Z,16.79
2017-08-07T22:23:38.042Z,16.78
2017-08-07T22:26:04.494Z,16.74
2017-08-07T22:28:31.051Z,16.69
2017-08-07T22:31:07.563Z,16.70
2017-08-07T22:33:50.782Z,16.69
2017-08-07T22:36:32.824Z,16.66
2017-08-07T22:41:46.607Z,16.59
2017-08-07T22:44:13.100Z,16.56
2017-08-07T22:46:40.998Z,16.56
2017-08-07T22:49:07.445Z,16.53
2017-08-07T22:51:33.913Z,16.51
2017-08-07T22:54:00.413Z,16.48
2017-08-07T22:56:26.886Z,16.45
2017-08-07T22:58:53.427Z,16.41
2017-08-07T23:01:19.942Z,16.37
2017-08-07T23:03:46.464Z,16.34
2017-08-07T23:06:13.802Z,16.31
2017-08-07T23:08:40.538Z,16.28
2017-08-07T23:11:08.538Z,16.27
2017-08-07T23:13:35.105Z,16.21
2017-08-07T23:16:01.593Z,16.19
2017-08-07T23:18:28.050Z,16.15
2017-08-07T23:20:54.634Z,16.12
2017-08-07T23:23:21.123Z,16.06
2017-08-07T23:25:47.833Z,16.05
2017-08-07T23:28:14.494Z,16.01
2017-08-07T23:30:41.159Z,16.01
2017-08-07T23:33:07.651Z,15.95
2017-08-07T23:35:37.959Z,15.93
2017-08-07T23:38:06.882Z,15.90
2017-08-07T23:40:34.986Z,15.86
2017-08-07T23:43:07.630Z,15.86
2017-08-07T23:45:35.272Z,15.81
2017-08-07T23:48:03.192Z,15.76
2017-08-07T23:50:30.175Z,15.71
2017-08-07T23:53:02.842Z,15.68
2017-08-07T23:55:30.226Z,15.64
2017-08-07T23:57:56.656Z,15.63
